createdAt,value
2019-02-24T00:01:03.048Z,80.80
2019-02-24T00:02:09.119Z,81.20
2019-02-24T00:03:15.334Z,81.10
2019-02-24T00:04:21.746Z,81.10
2019-02-24T00:05:28.826Z,81.30
2019-02-24T00:06:35.082Z,81.60
2019-02-24T00:07:41.346Z,81.40
2019-02-24T00:08:47.644Z,81.60
2019-02-24T00:09:53.840Z,81.90
2019-02-24T00:11:00.189Z,82.40
2019-02-24T00:12:06.287Z,81.30
2019-02-24T00:13:12.935Z,81.40
2019-02-24T00:14:19.118Z,81.50
2019-02-24T00:15:25.462Z,81.60
2019-02-24T00:16:31.648Z,81.80
2019-02-24T00:17:37.683Z,82.00
2019-02-24T00:18:43.817Z,81.50
2019-02-24T00:19:50.127Z,81.80
2019-02-24T00:20:56.478Z,82.20
2019-02-24T00:22:02.817Z,82.60
2019-02-24T00:23:08.876Z,82.90
2019-02-24T00:24:16.199Z,82.10
2019-02-24T00:25:22.441Z,81.60
2019-02-24T00:26:28.690Z,82.00
2019-02-24T00:27:35.824Z,82.20
2019-02-24T00:28:42.095Z,81.40
2019-02-24T00:29:48.388Z,80.90
2019-02-24T00:30:54.599Z,80.90
2019-02-24T00:32:00.940Z,80.70
2019-02-24T00:33:07.155Z,80.90
2019-02-24T00:34:13.176Z,81.60
2019-02-24T00:35:19.143Z,81.20
2019-02-24T00:36:25.191Z,81.50
2019-02-24T00:37:31.225Z,80.90
2019-02-24T00:38:37.345Z,79.90
2019-02-24T00:39:43.435Z,80.10
2019-02-24T00:40:49.485Z,80.80
2019-02-24T00:41:55.583Z,81.00
2019-02-24T00:43:01.434Z,81.10
2019-02-24T00:44:07.748Z,80.80
2019-02-24T00:45:13.964Z,80.80
2019-02-24T00:46:20.209Z,80.50
2019-02-24T00:47:26.288Z,81.30
2019-02-24T00:48:32.947Z,80.40
2019-02-24T00:49:39.203Z,80.00
2019-02-24T00:50:45.253Z,79.90
2019-02-24T00:51:51.675Z,79.70
2019-02-24T00:52:57.937Z,80.00
2019-02-24T00:54:04.206Z,79.50
2019-02-24T00:55:10.841Z,79.60
2019-02-24T00:56:16.730Z,80.60
2019-02-24T00:57:22.936Z,79.90
2019-02-24T00:58:29.134Z,80.20
2019-02-24T00:59:36.988Z,80.00
2019-02-24T01:00:43.084Z,79.80
2019-02-24T01:01:49.107Z,79.90
2019-02-24T01:02:55.261Z,80.50
2019-02-24T01:04:01.286Z,80.40
2019-02-24T01:05:07.619Z,80.10
2019-02-24T01:06:13.742Z,80.40
2019-02-24T01:07:19.993Z,80.20
2019-02-24T01:08:26.117Z,79.70
2019-02-24T01:09:32.346Z,79.70
2019-02-24T01:10:38.625Z,80.20
2019-02-24T01:11:44.865Z,80.20
2019-02-24T01:12:51.037Z,80.20
2019-02-24T01:13:57.232Z,80.60
2019-02-24T01:15:03.548Z,80.80
2019-02-24T01:16:10.850Z,80.10
2019-02-24T01:17:17.065Z,80.10
2019-02-24T01:18:23.227Z,79.50
2019-02-24T01:19:29.344Z,79.60
2019-02-24T01:20:35.597Z,79.50
2019-02-24T01:21:42.038Z,80.00
2019-02-24T01:22:48.261Z,79.10
2019-02-24T01:23:54.469Z,78.70
2019-02-24T01:25:00.632Z,79.10
2019-02-24T01:26:06.856Z,79.60
2019-02-24T01:27:13.133Z,79.30
2019-02-24T01:28:25.087Z,79.50
2019-02-24T01:29:26.932Z,79.80
2019-02-24T01:30:33.106Z,79.40
2019-02-24T01:31:39.167Z,79.70
2019-02-24T01:32:45.325Z,80.10
2019-02-24T01:33:51.572Z,80.00
2019-02-24T01:34:57.725Z,80.10
2019-02-24T01:36:03.865Z,80.50
2019-02-24T01:37:10.307Z,80.60
2019-02-24T01:38:16.562Z,80.20
2019-02-24T01:39:22.837Z,80.40
2019-02-24T01:40:29.107Z,80.40
2019-02-24T01:41:35.344Z,80.40
2019-02-24T01:42:41.510Z,80.60
2019-02-24T01:43:47.669Z,80.20
2019-02-24T01:44:53.783Z,80.90
2019-02-24T01:45:59.954Z,79.90
2019-02-24T01:47:06.400Z,79.70
2019-02-24T01:48:12.615Z,79.90
2019-02-24T01:49:18.892Z,80.00
2019-02-24T01:50:24.965Z,80.30
2019-02-24T01:51:31.234Z,80.50
2019-02-24T01:52:37.522Z,80.80
2019-02-24T01:53:43.798Z,80.30
2019-02-24T01:54:49.953Z,80.20
2019-02-24T01:55:56.288Z,80.00
2019-02-24T01:57:02.550Z,80.00
2019-02-24T01:58:08.635Z,79.50
2019-02-24T01:59:14.926Z,80.00
2019-02-24T02:00:21.015Z,80.20
2019-02-24T02:01:27.219Z,79.70
2019-02-24T02:02:33.387Z,80.00
2019-02-24T02:03:39.584Z,80.10
2019-02-24T02:04:45.808Z,80.60
2019-02-24T02:05:52.175Z,80.80
2019-02-24T02:06:58.522Z,80.80
2019-02-24T02:08:04.802Z,80.00
2019-02-24T02:09:11.166Z,79.90
2019-02-24T02:10:17.444Z,79.70
2019-02-24T02:11:23.981Z,79.50
2019-02-24T02:12:30.314Z,80.00
2019-02-24T02:13:36.577Z,80.40
2019-02-24T02:14:42.807Z,80.20
2019-02-24T02:15:49.124Z,80.40
2019-02-24T02:16:55.325Z,80.00
2019-02-24T02:18:01.595Z,80.00
2019-02-24T02:19:07.911Z,80.20
2019-02-24T02:20:14.133Z,79.10
2019-02-24T02:21:20.368Z,79.00
2019-02-24T02:22:26.624Z,79.40
2019-02-24T02:23:32.758Z,79.10
2019-02-24T02:24:38.918Z,79.20
2019-02-24T02:25:45.056Z,79.50
2019-02-24T02:26:51.433Z,80.00
2019-02-24T02:27:57.545Z,80.20
2019-02-24T02:29:03.806Z,79.50
2019-02-24T02:30:10.685Z,79.40
2019-02-24T02:31:16.838Z,79.70
2019-02-24T02:32:23.035Z,79.70
2019-02-24T02:33:29.148Z,79.70
2019-02-24T02:34:35.927Z,79.30
2019-02-24T02:35:41.993Z,79.40
2019-02-24T02:36:48.214Z,79.10
2019-02-24T02:37:54.324Z,79.30
2019-02-24T02:39:01.487Z,79.70
2019-02-24T02:40:09.178Z,79.50
2019-02-24T02:41:15.378Z,79.50
2019-02-24T02:42:21.708Z,79.50
2019-02-24T02:43:28.005Z,79.30
2019-02-24T02:44:34.125Z,79.60
2019-02-24T02:45:42.614Z,80.00
2019-02-24T02:46:48.897Z,80.20
2019-02-24T02:47:55.043Z,79.90
2019-02-24T02:49:01.149Z,80.40
2019-02-24T02:50:07.536Z,79.80
2019-02-24T02:51:13.934Z,79.80
2019-02-24T02:52:20.231Z,79.70
2019-02-24T02:53:26.486Z,79.90
2019-02-24T02:54:32.776Z,79.50
2019-02-24T02:55:39.078Z,79.40
2019-02-24T02:56:45.370Z,79.20
2019-02-24T02:57:53.074Z,79.30
2019-02-24T02:58:59.113Z,79.30
2019-02-24T03:00:07.686Z,79.30
2019-02-24T03:01:13.958Z,79.80
2019-02-24T03:02:24.393Z,80.00
2019-02-24T03:03:27.868Z,79.90
2019-02-24T03:04:33.833Z,80.40
2019-02-24T03:05:41.735Z,79.50
2019-02-24T03:07:01.794Z,79.50
2019-02-24T03:08:13.179Z,79.30
2019-02-24T03:09:19.437Z,79.60
2019-02-24T03:10:25.337Z,79.30
2019-02-24T03:11:32.149Z,79.30
2019-02-24T03:12:38.383Z,79.30
2019-02-24T03:13:44.556Z,79.30
2019-02-24T03:14:50.697Z,79.10
2019-02-24T03:15:56.857Z,79.80
2019-02-24T03:17:03.216Z,79.80
2019-02-24T03:18:09.552Z,79.50
2019-02-24T03:19:15.823Z,79.50
2019-02-24T03:20:22.084Z,79.60
2019-02-24T03:21:28.341Z,80.20
2019-02-24T03:22:34.577Z,79.70
2019-02-24T03:23:40.728Z,80.10
2019-02-24T03:24:46.873Z,79.20
2019-02-24T03:25:53.015Z,79.00
2019-02-24T03:26:59.146Z,79.20
2019-02-24T03:28:05.272Z,79.10
2019-02-24T03:29:11.432Z,79.30
2019-02-24T03:30:17.543Z,79.10
2019-02-24T03:31:23.868Z,79.10
2019-02-24T03:32:30.152Z,79.60
2019-02-24T03:33:36.471Z,79.70
2019-02-24T03:34:42.854Z,79.50
2019-02-24T03:35:49.128Z,80.20
2019-02-24T03:36:55.070Z,80.30
2019-02-24T03:38:00.927Z,80.20
2019-02-24T03:39:07.664Z,80.10
2019-02-24T03:40:13.825Z,80.00
2019-02-24T03:41:20.149Z,80.00
2019-02-24T03:42:26.328Z,79.10
2019-02-24T03:43:32.461Z,79.30
2019-02-24T03:44:38.651Z,79.30
2019-02-24T03:45:44.950Z,79.70
2019-02-24T03:46:51.175Z,80.00
2019-02-24T03:47:57.412Z,79.70
2019-02-24T03:49:03.461Z,79.90
2019-02-24T03:50:09.825Z,80.00
2019-02-24T03:51:16.123Z,79.90
2019-02-24T03:52:22.397Z,79.90
2019-02-24T03:53:28.642Z,79.50
2019-02-24T03:54:34.694Z,79.40
2019-02-24T03:55:40.806Z,79.90
2019-02-24T03:56:47.310Z,80.60
2019-02-24T03:57:53.692Z,80.20
2019-02-24T03:58:59.794Z,80.20
2019-02-24T04:00:06.240Z,80.10
2019-02-24T04:01:12.472Z,79.90
2019-02-24T04:02:18.457Z,79.80
2019-02-24T04:03:24.806Z,79.90
2019-02-24T04:04:31.097Z,79.50
2019-02-24T04:05:37.363Z,80.20
2019-02-24T04:06:43.650Z,79.30
2019-02-24T04:07:49.907Z,79.80
2019-02-24T04:08:56.065Z,79.60
2019-02-24T04:10:02.440Z,79.60
2019-02-24T04:11:09.514Z,79.70
2019-02-24T04:12:15.594Z,79.70
2019-02-24T04:13:21.795Z,79.30
2019-02-24T04:14:27.687Z,79.30
2019-02-24T04:15:34.008Z,79.40
2019-02-24T04:16:40.274Z,79.40
2019-02-24T04:17:46.517Z,79.30
2019-02-24T04:18:52.851Z,79.60
2019-02-24T04:19:59.239Z,80.90
2019-02-24T04:21:05.502Z,80.20
2019-02-24T04:22:11.736Z,80.20
2019-02-24T04:23:18.279Z,80.40
2019-02-24T04:24:24.373Z,80.30
2019-02-24T04:25:30.306Z,80.40
2019-02-24T04:26:36.522Z,80.00
2019-02-24T04:27:42.422Z,80.20
2019-02-24T04:28:48.808Z,80.20
2019-02-24T04:29:54.889Z,80.20
2019-02-24T04:31:01.166Z,80.40
2019-02-24T04:32:08.315Z,80.30
2019-02-24T04:33:14.405Z,80.40
2019-02-24T04:34:20.473Z,79.70
2019-02-24T04:35:26.504Z,79.50
2019-02-24T04:36:32.553Z,79.70
2019-02-24T04:37:38.578Z,79.60
2019-02-24T04:38:44.705Z,79.50
2019-02-24T04:39:51.637Z,79.50
2019-02-24T04:40:57.337Z,79.70
2019-02-24T04:42:03.367Z,80.70
2019-02-24T04:43:09.473Z,79.90
2019-02-24T04:44:15.605Z,80.20
2019-02-24T04:45:21.857Z,80.30
2019-02-24T04:46:27.898Z,80.00
2019-02-24T04:47:34.183Z,79.50
2019-02-24T04:48:40.394Z,79.70
2019-02-24T04:49:46.706Z,79.90
2019-02-24T04:50:52.860Z,79.50
2019-02-24T04:51:58.937Z,79.90
2019-02-24T04:53:04.977Z,80.40
2019-02-24T04:54:11.307Z,80.20
2019-02-24T04:55:17.570Z,80.50
2019-02-24T04:56:24.028Z,79.80
2019-02-24T04:57:30.219Z,80.00
2019-02-24T04:58:36.365Z,80.40
2019-02-24T04:59:42.487Z,79.90
2019-02-24T05:00:48.847Z,80.00
2019-02-24T05:01:55.135Z,79.90
2019-02-24T05:03:01.411Z,81.10
2019-02-24T05:04:07.684Z,80.20
2019-02-24T05:05:13.866Z,80.20
2019-02-24T05:06:20.115Z,80.20
2019-02-24T05:07:26.415Z,80.60
2019-02-24T05:08:32.632Z,80.30
2019-02-24T05:09:38.718Z,79.60
2019-02-24T05:10:45.036Z,79.10
2019-02-24T05:11:51.227Z,79.50
2019-02-24T05:12:57.363Z,79.20
2019-02-24T05:14:03.617Z,78.20
2019-02-24T05:15:09.835Z,78.30
2019-02-24T05:16:16.085Z,79.20
2019-02-24T05:17:22.295Z,78.80
2019-02-24T05:18:28.515Z,78.60
2019-02-24T05:19:34.574Z,78.50
2019-02-24T05:20:44.654Z,78.80
2019-02-24T05:21:50.833Z,78.60
2019-02-24T05:22:57.236Z,78.60
2019-02-24T05:24:03.523Z,79.30
2019-02-24T05:25:09.801Z,78.80
2019-02-24T05:26:16.270Z,78.60
2019-02-24T05:27:22.623Z,78.40
2019-02-24T05:28:29.062Z,77.70
2019-02-24T05:29:44.712Z,77.70
2019-02-24T05:30:43.086Z,78.10
2019-02-24T05:31:49.286Z,78.00
2019-02-24T05:32:55.556Z,77.80
2019-02-24T05:34:01.837Z,77.60
2019-02-24T05:35:08.129Z,77.60
2019-02-24T05:36:14.387Z,77.70
2019-02-24T05:37:20.593Z,77.70
2019-02-24T05:38:26.712Z,77.70
2019-02-24T05:39:32.883Z,77.20
2019-02-24T05:40:38.957Z,77.50
2019-02-24T05:41:45.142Z,77.50
2019-02-24T05:42:51.306Z,77.10
2019-02-24T05:43:57.561Z,77.20
2019-02-24T05:45:05.369Z,76.70
2019-02-24T05:46:11.615Z,78.10
2019-02-24T05:47:17.856Z,77.70
2019-02-24T05:48:23.916Z,77.90
2019-02-24T05:49:30.147Z,78.10
2019-02-24T05:50:36.472Z,78.40
2019-02-24T05:51:42.645Z,78.70
2019-02-24T05:52:48.705Z,79.00
2019-02-24T05:53:54.954Z,79.10
2019-02-24T05:55:01.126Z,79.00
2019-02-24T05:56:07.321Z,79.10
2019-02-24T05:57:16.489Z,78.90
2019-02-24T05:58:22.718Z,79.00
2019-02-24T05:59:28.886Z,79.10
2019-02-24T06:00:35.028Z,79.30
2019-02-24T06:01:41.414Z,79.70
2019-02-24T06:02:47.621Z,79.90
2019-02-24T06:04:12.363Z,80.30
2019-02-24T06:05:18.579Z,80.40
2019-02-24T06:06:24.830Z,80.40
2019-02-24T06:07:30.936Z,80.80
2019-02-24T06:08:38.637Z,81.30
2019-02-24T06:09:44.960Z,80.60
2019-02-24T06:10:51.177Z,80.50
2019-02-24T06:11:57.339Z,80.30
2019-02-24T06:13:03.558Z,80.90
2019-02-24T06:14:09.635Z,81.40
2019-02-24T06:15:15.808Z,81.80
2019-02-24T06:16:22.121Z,81.50
2019-02-24T06:17:28.058Z,81.50
2019-02-24T06:18:34.461Z,81.40
2019-02-24T06:19:40.588Z,81.90
2019-02-24T06:20:46.924Z,82.10
2019-02-24T06:21:53.076Z,82.50
2019-02-24T06:22:59.341Z,83.20
2019-02-24T06:24:05.626Z,82.70
2019-02-24T06:25:11.846Z,82.70
2019-02-24T06:26:18.074Z,82.90
2019-02-24T06:27:24.255Z,83.10
2019-02-24T06:28:30.386Z,84.10
2019-02-24T06:29:36.653Z,84.10
2019-02-24T06:30:42.440Z,85.40
2019-02-24T06:31:48.688Z,84.30
2019-02-24T06:32:54.815Z,84.60
2019-02-24T06:34:00.958Z,85.10
2019-02-24T06:35:07.562Z,85.00
2019-02-24T06:36:13.743Z,84.50
2019-02-24T06:37:19.858Z,84.80
2019-02-24T06:38:26.038Z,84.70
2019-02-24T06:39:33.326Z,84.70
2019-02-24T06:40:39.787Z,84.70
2019-02-24T06:41:46.052Z,85.00
2019-02-24T06:42:52.381Z,84.90
2019-02-24T06:43:58.289Z,85.00
2019-02-24T06:45:04.493Z,85.20
2019-02-24T06:46:11.052Z,85.00
2019-02-24T06:47:17.237Z,84.30
2019-02-24T06:48:23.375Z,85.40
2019-02-24T06:49:29.555Z,85.60
2019-02-24T06:50:56.845Z,85.90
2019-02-24T06:52:02.924Z,85.90
2019-02-24T06:53:09.156Z,86.30
2019-02-24T06:54:16.548Z,85.90
2019-02-24T06:55:22.831Z,86.00
2019-02-24T06:56:29.109Z,86.30
2019-02-24T06:57:35.292Z,86.10
2019-02-24T06:58:41.391Z,86.30
2019-02-24T06:59:47.640Z,86.60
2019-02-24T07:00:53.661Z,87.00
2019-02-24T07:01:59.874Z,87.20
2019-02-24T07:03:05.954Z,87.80
2019-02-24T07:04:12.313Z,87.90
2019-02-24T07:05:18.386Z,87.80
2019-02-24T07:06:24.715Z,88.10
2019-02-24T07:07:31.052Z,87.70
2019-02-24T07:08:37.306Z,87.70
2019-02-24T07:09:43.585Z,88.30
2019-02-24T07:10:49.717Z,87.70
2019-02-24T07:11:55.887Z,87.50
2019-02-24T07:13:02.207Z,87.10
2019-02-24T07:14:08.444Z,88.40
2019-02-24T07:15:14.619Z,87.50
2019-02-24T07:16:20.824Z,87.80
2019-02-24T07:17:27.015Z,87.80
2019-02-24T07:18:32.965Z,88.10
2019-02-24T07:19:39.171Z,88.00
2019-02-24T07:20:45.332Z,88.30
2019-02-24T07:21:51.614Z,88.00
2019-02-24T07:22:57.692Z,88.20
2019-02-24T07:24:03.986Z,88.50
2019-02-24T07:25:10.220Z,88.50
2019-02-24T07:26:16.407Z,88.60
2019-02-24T07:27:22.528Z,89.00
2019-02-24T07:28:28.743Z,89.10
2019-02-24T07:29:35.299Z,89.20
2019-02-24T07:30:41.437Z,89.20
2019-02-24T07:31:47.717Z,89.20
2019-02-24T07:32:54.056Z,89.20
2019-02-24T07:34:00.385Z,88.60
2019-02-24T07:35:07.691Z,88.80
2019-02-24T07:36:13.989Z,88.90
2019-02-24T07:37:20.208Z,88.70
2019-02-24T07:38:26.534Z,89.20
2019-02-24T07:39:32.709Z,89.20
2019-02-24T07:40:38.881Z,89.10
2019-02-24T07:41:45.044Z,89.70
2019-02-24T07:42:51.144Z,89.80
2019-02-24T07:43:57.056Z,89.60
2019-02-24T07:45:03.305Z,89.70
2019-02-24T07:46:09.859Z,89.60
2019-02-24T07:47:16.002Z,89.60
2019-02-24T07:48:22.170Z,89.70
2019-02-24T07:49:28.294Z,89.80
2019-02-24T07:50:34.410Z,89.50
2019-02-24T07:51:40.536Z,89.40
2019-02-24T07:52:46.649Z,89.50
2019-02-24T07:53:52.977Z,89.30
2019-02-24T07:54:59.326Z,89.70
2019-02-24T07:56:06.510Z,90.00
2019-02-24T07:57:12.969Z,89.90
2019-02-24T07:58:19.216Z,89.90
2019-02-24T07:59:25.419Z,90.20
2019-02-24T08:00:32.542Z,89.80
2019-02-24T08:01:38.915Z,89.80
2019-02-24T08:02:45.245Z,89.80
2019-02-24T08:03:51.444Z,89.80
2019-02-24T08:04:57.693Z,89.60
2019-02-24T08:06:03.814Z,89.70
2019-02-24T08:07:10.020Z,89.60
2019-02-24T08:08:16.641Z,89.50
2019-02-24T08:09:22.698Z,89.60
2019-02-24T08:10:28.832Z,89.60
2019-02-24T08:11:34.983Z,89.60
2019-02-24T08:12:41.157Z,89.80
2019-02-24T08:13:47.544Z,90.00
2019-02-24T08:14:53.921Z,90.00
2019-02-24T08:16:00.186Z,89.90
2019-02-24T08:17:06.422Z,90.00
2019-02-24T08:18:12.592Z,90.00
2019-02-24T08:19:18.932Z,90.00
2019-02-24T08:20:25.213Z,89.40
2019-02-24T08:21:31.236Z,88.80
2019-02-24T08:22:37.339Z,89.40
2019-02-24T08:23:43.583Z,89.40
2019-02-24T08:24:49.856Z,89.60
2019-02-24T08:25:56.142Z,89.60
2019-02-24T08:27:02.304Z,89.50
2019-02-24T08:28:08.495Z,89.20
2019-02-24T08:29:14.686Z,89.40
2019-02-24T08:30:20.900Z,89.10
2019-02-24T08:31:27.076Z,88.40
2019-02-24T08:32:33.164Z,88.10
2019-02-24T08:33:39.321Z,88.30
2019-02-24T08:34:45.683Z,88.40
2019-02-24T08:35:51.885Z,88.00
2019-02-24T08:36:58.001Z,88.20
2019-02-24T08:38:05.112Z,87.50
2019-02-24T08:39:14.495Z,87.60
2019-02-24T08:40:20.570Z,87.40
2019-02-24T08:41:26.757Z,87.60
2019-02-24T08:42:32.892Z,88.30
2019-02-24T08:43:39.096Z,88.30
2019-02-24T08:44:45.235Z,88.60
2019-02-24T08:45:51.781Z,88.50
2019-02-24T08:46:58.089Z,88.50
2019-02-24T08:48:04.303Z,88.40
2019-02-24T08:49:10.651Z,88.30
2019-02-24T08:50:16.839Z,88.50
2019-02-24T08:51:23.969Z,89.10
2019-02-24T08:52:30.297Z,89.00
2019-02-24T08:53:36.524Z,88.60
2019-02-24T08:54:42.746Z,87.90
2019-02-24T08:55:49.177Z,87.70
2019-02-24T08:56:55.744Z,87.50
2019-02-24T08:58:02.142Z,86.90
2019-02-24T08:59:08.025Z,86.50
2019-02-24T09:00:14.366Z,84.70
2019-02-24T09:01:20.702Z,84.70
2019-02-24T09:02:26.936Z,84.10
2019-02-24T09:03:33.187Z,83.70
2019-02-24T09:04:39.445Z,83.30
2019-02-24T09:05:45.868Z,83.70
2019-02-24T09:06:52.123Z,82.60
2019-02-24T09:07:58.418Z,82.20
2019-02-24T09:09:05.010Z,81.40
2019-02-24T09:10:11.399Z,81.50
2019-02-24T09:11:17.695Z,82.00
2019-02-24T09:12:24.004Z,82.60
2019-02-24T09:13:30.332Z,82.80
2019-02-24T09:14:36.710Z,83.00
2019-02-24T09:15:42.875Z,82.50
2019-02-24T09:16:49.252Z,83.00
2019-02-24T09:17:55.597Z,83.50
2019-02-24T09:19:02.035Z,83.90
2019-02-24T09:20:08.971Z,83.70
2019-02-24T09:21:15.191Z,83.20
2019-02-24T09:22:21.664Z,83.50
2019-02-24T09:23:27.997Z,83.60
2019-02-24T09:24:34.527Z,83.20
2019-02-24T09:25:40.754Z,83.50
2019-02-24T09:26:46.966Z,82.40
2019-02-24T09:27:53.251Z,82.50
2019-02-24T09:28:59.585Z,82.70
2019-02-24T09:30:06.095Z,82.40
2019-02-24T09:31:12.491Z,83.20
2019-02-24T09:32:18.627Z,82.90
2019-02-24T09:33:25.325Z,82.50
2019-02-24T09:34:32.619Z,82.30
2019-02-24T09:35:38.904Z,81.60
2019-02-24T09:36:44.937Z,82.30
2019-02-24T09:37:51.219Z,82.60
2019-02-24T09:38:57.555Z,82.60
2019-02-24T09:40:03.913Z,83.00
2019-02-24T09:41:10.215Z,83.50
2019-02-24T09:42:16.354Z,83.40
2019-02-24T09:43:22.522Z,84.00
2019-02-24T09:44:28.811Z,84.10
2019-02-24T09:45:34.905Z,83.70
2019-02-24T09:46:42.374Z,83.80
2019-02-24T09:47:51.707Z,84.30
2019-02-24T09:48:58.040Z,84.00
2019-02-24T09:50:04.358Z,84.50
2019-02-24T09:51:10.597Z,83.90
2019-02-24T09:52:16.874Z,83.50
2019-02-24T09:53:23.096Z,83.90
2019-02-24T09:54:29.455Z,83.30
2019-02-24T09:55:35.705Z,83.30
2019-02-24T09:56:41.873Z,83.30
2019-02-24T09:57:48.169Z,83.30
2019-02-24T09:58:54.365Z,83.20
2019-02-24T10:00:24.663Z,83.00
2019-02-24T10:01:32.276Z,83.30
2019-02-24T10:02:38.808Z,83.60
2019-02-24T10:03:45.015Z,82.80
2019-02-24T10:04:51.115Z,82.60
2019-02-24T10:05:57.277Z,83.00
2019-02-24T10:07:03.438Z,83.00
2019-02-24T10:08:09.649Z,82.50
2019-02-24T10:09:15.885Z,81.90
2019-02-24T10:10:21.734Z,82.10
2019-02-24T10:11:28.074Z,82.60
2019-02-24T10:12:34.368Z,82.70
2019-02-24T10:13:40.736Z,81.90
2019-02-24T10:14:47.021Z,82.50
2019-02-24T10:15:53.236Z,83.60
2019-02-24T10:16:59.547Z,84.00
2019-02-24T10:18:05.777Z,83.90
2019-02-24T10:19:12.018Z,83.50
2019-02-24T10:20:18.305Z,83.40
2019-02-24T10:21:24.771Z,83.10
2019-02-24T10:22:32.245Z,83.40
2019-02-24T10:23:39.527Z,83.00
2019-02-24T10:24:45.913Z,82.30
2019-02-24T10:25:52.253Z,81.20
2019-02-24T10:26:59.526Z,80.80
2019-02-24T10:28:05.889Z,80.80
2019-02-24T10:29:12.199Z,80.40
2019-02-24T10:30:18.714Z,80.70
2019-02-24T10:31:25.271Z,80.60
2019-02-24T10:32:31.532Z,80.80
2019-02-24T10:33:37.955Z,80.30
2019-02-24T10:34:44.072Z,80.80
2019-02-24T10:35:50.393Z,80.90
2019-02-24T10:36:56.730Z,80.90
2019-02-24T10:38:03.180Z,80.00
2019-02-24T10:39:13.103Z,80.10
2019-02-24T10:40:19.473Z,79.10
2019-02-24T10:41:25.674Z,78.70
2019-02-24T10:42:31.788Z,79.30
2019-02-24T10:43:39.077Z,77.90
2019-02-24T10:44:45.369Z,74.60
2019-02-24T10:45:52.918Z,72.70
2019-02-24T10:46:59.277Z,73.10
2019-02-24T10:48:13.682Z,73.30
2019-02-24T10:49:13.845Z,74.40
2019-02-24T10:50:39.192Z,73.90
2019-02-24T10:51:45.406Z,74.90
2019-02-24T10:52:51.801Z,75.10
2019-02-24T10:53:58.017Z,75.40
2019-02-24T10:55:04.317Z,76.00
2019-02-24T10:56:10.580Z,76.90
2019-02-24T10:57:16.821Z,76.60
2019-02-24T10:58:23.166Z,76.20
2019-02-24T10:59:29.486Z,77.00
2019-02-24T11:00:35.953Z,76.20
2019-02-24T11:01:42.457Z,76.40
2019-02-24T11:02:49.305Z,76.60
2019-02-24T11:03:55.616Z,75.90
2019-02-24T11:05:01.925Z,75.10
2019-02-24T11:06:08.407Z,73.30
2019-02-24T11:07:14.537Z,71.30
2019-02-24T11:08:20.766Z,69.40
2019-02-24T11:09:27.020Z,67.50
2019-02-24T11:10:33.402Z,67.50
2019-02-24T11:11:39.798Z,69.20
2019-02-24T11:12:45.934Z,68.30
2019-02-24T11:13:52.281Z,69.10
2019-02-24T11:14:58.783Z,69.90
2019-02-24T11:16:05.176Z,70.90
2019-02-24T11:17:11.419Z,71.10
2019-02-24T11:18:17.573Z,71.50
2019-02-24T11:19:24.086Z,72.30
2019-02-24T11:20:30.093Z,72.70
2019-02-24T11:21:36.313Z,72.20
2019-02-24T11:22:42.466Z,72.30
2019-02-24T11:23:48.735Z,71.60
2019-02-24T11:24:55.975Z,71.80
2019-02-24T11:26:03.036Z,72.10
2019-02-24T11:27:09.282Z,71.80
2019-02-24T11:28:15.563Z,72.70
2019-02-24T11:29:21.731Z,71.60
2019-02-24T11:30:29.919Z,70.80
2019-02-24T11:31:38.601Z,69.80
2019-02-24T11:32:44.321Z,67.10
2019-02-24T11:33:50.833Z,65.60
2019-02-24T11:34:57.007Z,63.20
2019-02-24T11:36:03.297Z,59.30
2019-02-24T11:37:09.875Z,56.70
2019-02-24T11:38:16.235Z,54.60
2019-02-24T11:39:22.578Z,56.10
2019-02-24T11:40:29.039Z,58.40
2019-02-24T11:41:35.360Z,60.90
2019-02-24T11:42:41.707Z,63.10
2019-02-24T11:43:48.391Z,64.10
2019-02-24T11:44:54.746Z,64.50
2019-02-24T11:46:01.210Z,65.10
2019-02-24T11:47:07.380Z,65.70
2019-02-24T11:48:14.730Z,66.20
2019-02-24T11:49:21.060Z,67.30
2019-02-24T11:50:27.333Z,67.50
2019-02-24T11:51:33.676Z,68.00
2019-02-24T11:52:42.085Z,69.10
2019-02-24T11:53:48.550Z,69.70
2019-02-24T11:54:55.097Z,70.30
2019-02-24T11:56:01.358Z,69.70
2019-02-24T11:57:07.800Z,69.10
2019-02-24T11:58:13.992Z,69.70
2019-02-24T11:59:20.419Z,70.20
2019-02-24T12:00:27.090Z,70.70
2019-02-24T12:01:33.431Z,70.70
2019-02-24T12:02:41.760Z,71.70
2019-02-24T12:03:48.586Z,71.80
2019-02-24T12:04:54.977Z,72.10
2019-02-24T12:06:01.392Z,71.90
2019-02-24T12:07:07.707Z,71.90
2019-02-24T12:08:14.120Z,72.10
2019-02-24T12:09:20.646Z,72.10
2019-02-24T12:10:27.112Z,71.50
2019-02-24T12:11:34.016Z,69.70
2019-02-24T12:12:40.190Z,66.40
2019-02-24T12:13:46.777Z,65.50
2019-02-24T12:14:53.279Z,65.80
2019-02-24T12:15:59.926Z,65.90
2019-02-24T12:17:06.341Z,66.50
2019-02-24T12:18:13.717Z,66.60
2019-02-24T12:19:20.699Z,66.20
2019-02-24T12:20:26.988Z,66.30
2019-02-24T12:21:33.616Z,67.40
2019-02-24T12:22:40.046Z,67.30
2019-02-24T12:23:46.418Z,67.40
2019-02-24T12:24:52.752Z,66.50
2019-02-24T12:25:59.663Z,66.70
2019-02-24T12:27:06.224Z,67.80
2019-02-24T12:28:12.622Z,69.20
2019-02-24T12:29:18.860Z,68.90
2019-02-24T12:30:25.234Z,68.70
2019-02-24T12:31:31.733Z,68.50
2019-02-24T12:32:38.286Z,69.20
2019-02-24T12:33:44.873Z,68.90
2019-02-24T12:34:51.409Z,68.30
2019-02-24T12:35:59.018Z,67.60
2019-02-24T12:37:05.710Z,67.70
2019-02-24T12:38:12.090Z,67.60
2019-02-24T12:39:18.422Z,68.30
2019-02-24T12:40:25.038Z,68.50
2019-02-24T12:41:31.407Z,68.00
2019-02-24T12:42:37.833Z,68.40
2019-02-24T12:43:44.241Z,68.50
2019-02-24T12:44:50.481Z,68.40
2019-02-24T12:45:56.807Z,67.80
2019-02-24T12:47:03.168Z,68.30
2019-02-24T12:48:09.528Z,69.30
2019-02-24T12:49:17.289Z,69.00
2019-02-24T12:50:24.137Z,69.80
2019-02-24T12:51:30.645Z,69.70
2019-02-24T12:52:37.346Z,70.00
2019-02-24T12:53:43.703Z,70.10
2019-02-24T12:54:50.206Z,70.00
2019-02-24T12:55:57.263Z,69.60
2019-02-24T12:57:03.638Z,68.90
2019-02-24T12:58:10.225Z,70.10
2019-02-24T12:59:16.772Z,69.40
2019-02-24T13:00:23.505Z,69.60
2019-02-24T13:01:33.158Z,68.90
2019-02-24T13:02:39.712Z,69.80
2019-02-24T13:03:46.176Z,70.00
2019-02-24T13:04:52.565Z,70.30
2019-02-24T13:05:59.078Z,69.90
2019-02-24T13:07:07.188Z,69.70
2019-02-24T13:08:13.435Z,71.00
2019-02-24T13:09:19.933Z,71.20
2019-02-24T13:10:26.281Z,71.40
2019-02-24T13:11:32.824Z,71.40
2019-02-24T13:12:39.303Z,72.10
2019-02-24T13:13:45.828Z,70.90
2019-02-24T13:14:52.162Z,70.90
2019-02-24T13:15:58.680Z,71.00
2019-02-24T13:17:05.088Z,71.20
2019-02-24T13:18:11.426Z,70.80
2019-02-24T13:19:17.915Z,71.20
2019-02-24T13:20:24.558Z,71.60
2019-02-24T13:21:31.241Z,72.00
2019-02-24T13:22:38.527Z,72.10
2019-02-24T13:23:44.897Z,71.80
2019-02-24T13:24:52.181Z,71.90
2019-02-24T13:25:59.025Z,71.90
2019-02-24T13:27:05.712Z,71.30
2019-02-24T13:28:13.274Z,71.50
2019-02-24T13:29:19.965Z,70.70
2019-02-24T13:30:26.865Z,70.10
2019-02-24T13:31:33.391Z,70.10
2019-02-24T13:32:39.980Z,70.50
2019-02-24T13:33:46.647Z,70.70
2019-02-24T13:34:53.329Z,70.60
2019-02-24T13:36:00.044Z,70.20
2019-02-24T13:37:06.685Z,70.00
2019-02-24T13:38:13.331Z,69.70
2019-02-24T13:39:19.852Z,69.70
2019-02-24T13:40:26.365Z,70.20
2019-02-24T13:41:32.888Z,69.50
2019-02-24T13:42:39.388Z,69.90
2019-02-24T13:43:46.030Z,70.00
2019-02-24T13:44:52.333Z,70.80
2019-02-24T13:45:58.767Z,71.20
2019-02-24T13:47:05.591Z,71.00
2019-02-24T13:48:12.094Z,71.40
2019-02-24T13:49:18.692Z,71.90
2019-02-24T13:50:25.249Z,72.80
2019-02-24T13:51:31.858Z,73.00
2019-02-24T13:52:38.187Z,70.60
2019-02-24T13:53:44.822Z,68.70
2019-02-24T13:54:51.254Z,67.50
2019-02-24T13:55:57.899Z,67.70
2019-02-24T13:57:04.195Z,68.30
2019-02-24T13:58:10.543Z,68.40
2019-02-24T13:59:17.120Z,67.70
2019-02-24T14:00:23.854Z,65.30
2019-02-24T14:01:30.485Z,62.90
2019-02-24T14:02:37.106Z,63.00
2019-02-24T14:03:43.890Z,62.30
2019-02-24T14:04:50.356Z,62.00
2019-02-24T14:05:57.064Z,61.10
2019-02-24T14:07:03.408Z,60.50
2019-02-24T14:08:09.908Z,59.90
2019-02-24T14:09:16.956Z,61.90
2019-02-24T14:10:23.396Z,63.40
2019-02-24T14:11:30.092Z,63.70
2019-02-24T14:12:36.785Z,62.10
2019-02-24T14:13:44.434Z,60.50
2019-02-24T14:14:51.215Z,60.80
2019-02-24T14:15:57.993Z,61.70
2019-02-24T14:17:04.510Z,62.50